Time;durP1;ratioP1;P1;durP2;ratioP2;P2;SDS_P1;SDS_P2;PMS_P1;PMS_P2;Temp;Humidity;BMP_temperature;BMP_pressure;BME280_temperature;BME280_humidity;BME280_pressure;Samples;Min_cycle;Max_cycle;Signal;HPM_P1;HPM_P2
2022/09/01 00:01:38;;;;;;;2.85;2.00;;;16.10;99.90;;;;;;5075399;28;20268;-80
2022/09/01 00:04:07;;;;;;;3.15;1.88;;;16.10;99.90;;;;;;5081996;28;20584;-81
2022/09/01 00:06:34;;;;;;;3.55;2.38;;;16.10;99.90;;;;;;5094518;28;20201;-80
2022/09/01 00:09:04;;;;;;;4.55;2.15;;;16.00;99.90;;;;;;5084825;28;20276;-80
2022/09/01 00:11:32;;;;;;;2.15;1.65;;;16.00;99.90;;;;;;5073998;28;20282;-80
2022/09/01 00:14:01;;;;;;;3.38;2.13;;;16.00;99.90;;;;;;5074686;28;20228;-81
2022/09/01 00:16:29;;;;;;;3.58;2.22;;;16.00;99.90;;;;;;5073495;28;20214;-80
2022/09/01 00:18:58;;;;;;;2.65;1.92;;;16.00;99.90;;;;;;5073277;28;20201;-79
2022/09/01 00:21:27;;;;;;;5.07;2.13;;;16.00;99.90;;;;;;5073694;28;20193;-80
2022/09/01 00:23:54;;;;;;;3.83;1.70;;;16.00;99.90;;;;;;5081337;28;20231;-80
2022/09/01 00:26:21;;;;;;;5.20;2.20;;;16.00;99.90;;;;;;5094071;28;20604;-81
2022/09/01 00:28:49;;;;;;;2.33;1.70;;;15.90;99.90;;;;;;5094434;28;20204;-81
2022/09/01 00:31:17;;;;;;;5.57;2.15;;;15.90;99.90;;;;;;5090805;28;20201;-81
2022/09/01 00:33:44;;;;;;;3.08;1.92;;;15.90;99.90;;;;;;5073578;28;20220;-81
2022/09/01 00:36:12;;;;;;;2.13;1.65;;;15.90;99.90;;;;;;5086405;28;20616;-82
2022/09/01 00:38:40;;;;;;;3.53;1.70;;;15.90;99.90;;;;;;5093511;28;20601;-82
2022/09/01 00:41:07;;;;;;;5.45;2.30;;;15.80;99.90;;;;;;5093958;28;20345;-81
2022/09/01 00:43:40;;;;;;;4.13;2.03;;;15.80;99.90;;;;;;5081132;28;20209;-81
2022/09/01 00:46:08;;;;;;;3.90;2.05;;;15.80;99.90;;;;;;5073471;28;20197;-82
2022/09/01 00:48:36;;;;;;;3.10;2.33;;;15.80;99.90;;;;;;5073695;28;20201;-82
2022/09/01 00:51:03;;;;;;;5.37;1.93;;;15.70;99.90;;;;;;5072713;28;20201;-81
2022/09/01 00:53:33;;;;;;;2.67;2.03;;;15.70;99.90;;;;;;5072926;28;20732;-81
2022/09/01 00:56:00;;;;;;;4.73;2.00;;;15.70;99.90;;;;;;5073847;28;20669;-81
2022/09/01 00:58:27;;;;;;;2.42;1.85;;;15.70;99.90;;;;;;5092420;28;20505;-81
2022/09/01 01:00:54;;;;;;;5.05;2.70;;;15.60;99.90;;;;;;5093124;28;20192;-80
2022/09/01 01:03:22;;;;;;;8.27;2.80;;;15.60;99.90;;;;;;5088390;28;20192;-80
2022/09/01 01:05:53;;;;;;;2.83;2.03;;;15.60;99.90;;;;;;5081305;28;20197;-80
2022/09/01 01:08:30;;;;;;;3.28;2.25;;;15.50;99.90;;;;;;5093204;28;20197;-80
2022/09/01 01:10:58;;;;;;;3.13;1.92;;;15.50;99.90;;;;;;5086548;28;20308;-80
2022/09/01 01:13:26;;;;;;;4.90;2.10;;;15.50;99.90;;;;;;5099715;28;20588;-80
2022/09/01 01:15:53;;;;;;;3.42;2.78;;;15.40;99.90;;;;;;5103089;28;20611;-80
2022/09/01 01:18:20;;;;;;;3.67;2.33;;;15.40;99.90;;;;;;5075520;28;20211;-79
2022/09/01 01:23:40;;;;;;;4.05;2.75;;;15.30;99.90;;;;;;5081936;28;20262;-82
2022/09/01 01:26:10;;;;;;;2.90;2.10;;;15.30;99.90;;;;;;5092788;28;20198;-81
2022/09/01 01:28:39;;;;;;;4.30;1.80;;;15.20;99.90;;;;;;5092837;28;20200;-81
2022/09/01 01:31:10;;;;;;;3.33;1.90;;;15.20;99.90;;;;;;5091932;28;20219;-83
2022/09/01 01:33:40;;;;;;;5.47;2.50;;;15.10;99.90;;;;;;5075339;28;20338;-81
2022/09/01 01:36:11;;;;;;;4.65;2.28;;;15.10;99.90;;;;;;5073671;28;20204;-82
2022/09/01 01:38:40;;;;;;;3.45;2.30;;;15.10;99.90;;;;;;5076781;28;20204;-80
2022/09/01 01:41:08;;;;;;;2.55;2.00;;;15.00;99.90;;;;;;5080518;28;20202;-81
2022/09/01 01:43:36;;;;;;;2.00;1.87;;;15.00;99.90;;;;;;5081781;28;20215;-81
2022/09/01 01:46:06;;;;;;;2.60;1.73;;;14.90;99.90;;;;;;5072321;28;20197;-82
2022/09/01 01:48:36;;;;;;;3.00;1.90;;;14.90;99.90;;;;;;5072269;28;20263;-80
2022/09/01 01:51:04;;;;;;;2.53;1.80;;;14.90;99.90;;;;;;5078385;28;20205;-79
2022/09/01 01:53:32;;;;;;;2.50;1.50;;;14.90;99.90;;;;;;5092591;28;20240;-81
2022/09/01 01:55:59;;;;;;;2.00;1.80;;;14.80;99.90;;;;;;5090818;28;20219;-79
2022/09/01 01:58:29;;;;;;;3.97;2.23;;;14.80;99.90;;;;;;5072700;28;20259;-81
2022/09/01 02:00:57;;;;;;;2.60;2.25;;;14.80;99.90;;;;;;5071479;28;20197;-81
2022/09/01 02:03:27;;;;;;;2.47;1.90;;;14.70;99.90;;;;;;5071715;28;20664;-80
2022/09/01 02:05:55;;;;;;;2.17;1.83;;;14.60;99.90;;;;;;5072873;28;20528;-81
2022/09/01 02:08:24;;;;;;;3.20;1.92;;;14.60;99.90;;;;;;5071155;28;20196;-80
2022/09/01 02:10:53;;;;;;;4.05;2.17;;;14.60;99.90;;;;;;5086688;28;20204;-80
2022/09/01 02:13:29;;;;;;;1.98;1.80;;;14.50;99.90;;;;;;5092353;28;20285;-80
2022/09/01 02:16:00;;;;;;;3.13;2.20;;;14.50;99.90;;;;;;5110560;28;20310;-79
2022/09/01 02:18:33;;;;;;;2.57;2.00;;;14.50;99.90;;;;;;5112006;28;20614;-81
2022/09/01 02:21:00;;;;;;;3.28;2.42;;;14.40;99.90;;;;;;5112337;28;20203;-81
2022/09/01 02:23:28;;;;;;;3.92;1.70;;;14.40;99.90;;;;;;5092461;28;20220;-81
2022/09/01 02:25:59;;;;;;;2.95;2.30;;;14.30;99.90;;;;;;5071563;28;20227;-81
2022/09/01 02:28:27;;;;;;;2.00;1.80;;;14.30;99.90;;;;;;5071315;28;20773;-81
2022/09/01 02:30:56;;;;;;;2.47;1.80;;;14.30;99.90;;;;;;5071003;28;20581;-80
2022/09/01 02:33:26;;;;;;;1.75;1.65;;;14.20;99.90;;;;;;5071698;28;20598;-81
2022/09/01 02:35:56;;;;;;;2.50;2.10;;;14.20;99.90;;;;;;5076198;28;20235;-80
2022/09/01 02:38:28;;;;;;;3.80;2.00;;;14.20;99.90;;;;;;5076015;28;20189;-80
2022/09/01 02:40:57;;;;;;;2.93;2.30;;;14.10;99.90;;;;;;5076154;28;20195;-81
2022/09/01 02:43:27;;;;;;;2.87;2.33;;;14.10;99.90;;;;;;5074939;28;20201;-80
2022/09/01 02:45:58;;;;;;;3.40;1.93;;;14.10;99.90;;;;;;5095537;28;20288;-80
2022/09/01 02:48:31;;;;;;;2.50;2.23;;;14.10;99.90;;;;;;5095795;28;20259;-81
2022/09/01 02:51:00;;;;;;;4.20;2.30;;;14.00;99.90;;;;;;5091462;28;20331;-80
2022/09/01 02:53:27;;;;;;;3.13;2.10;;;14.00;99.90;;;;;;5074791;28;20236;-81
2022/09/01 02:55:56;;;;;;;3.83;2.13;;;14.00;99.90;;;;;;5075039;28;20221;-80
2022/09/01 02:58:23;;;;;;;2.50;2.17;;;14.00;99.90;;;;;;5076854;28;20284;-80
2022/09/01 03:00:54;;;;;;;2.47;2.20;;;13.90;99.90;;;;;;5084698;28;20295;-80
2022/09/01 03:03:21;;;;;;;2.57;2.00;;;13.90;99.90;;;;;;5097335;28;20215;-80
2022/09/01 03:05:55;;;;;;;3.37;2.00;;;13.90;99.90;;;;;;5100231;28;20196;-80
2022/09/01 03:08:23;;;;;;;2.93;2.63;;;13.90;99.90;;;;;;5077183;28;20211;-80
2022/09/01 03:10:52;;;;;;;3.43;2.10;;;13.80;99.90;;;;;;5075058;28;20625;-81
2022/09/01 03:13:22;;;;;;;2.43;2.20;;;13.80;99.90;;;;;;5074949;28;20201;-80
2022/09/01 03:15:49;;;;;;;3.38;2.40;;;13.80;99.90;;;;;;5075652;28;20228;-80
2022/09/01 03:18:17;;;;;;;4.20;2.40;;;13.80;99.90;;;;;;5074968;28;20193;-80
2022/09/01 03:20:46;;;;;;;3.30;2.33;;;13.80;99.90;;;;;;5074914;28;20663;-80
2022/09/01 03:23:17;;;;;;;2.57;2.10;;;13.80;99.90;;;;;;5075558;28;20258;-80
2022/09/01 03:25:46;;;;;;;3.23;2.50;;;13.70;99.90;;;;;;5074973;28;20203;-80
2022/09/01 03:28:16;;;;;;;2.83;2.50;;;13.70;99.90;;;;;;5075111;28;20589;-81
2022/09/01 03:30:47;;;;;;;3.80;2.67;;;13.70;99.90;;;;;;5090901;28;20212;-81
2022/09/01 03:33:15;;;;;;;2.80;2.57;;;13.70;99.90;;;;;;5087318;28;20641;-80
2022/09/01 03:35:43;;;;;;;2.53;2.33;;;13.70;99.90;;;;;;5075062;28;20379;-80
2022/09/01 03:38:12;;;;;;;2.60;2.10;;;13.70;99.90;;;;;;5075082;28;20306;-81
2022/09/01 03:40:41;;;;;;;4.37;2.43;;;13.70;99.90;;;;;;5075005;28;20524;-81
2022/09/01 03:43:12;;;;;;;3.60;2.50;;;13.70;99.90;;;;;;5074082;28;20589;-81
2022/09/01 03:45:40;;;;;;;2.70;2.50;;;13.70;99.90;;;;;;5092424;28;20506;-81
2022/09/01 03:48:09;;;;;;;2.80;2.50;;;13.70;99.90;;;;;;5095032;28;20537;-79
2022/09/01 03:50:39;;;;;;;2.60;2.40;;;13.70;99.90;;;;;;5088606;28;20507;-80
2022/09/01 03:53:07;;;;;;;5.20;2.57;;;13.70;99.90;;;;;;5074771;28;20284;-80
2022/09/01 03:55:37;;;;;;;4.37;3.20;;;13.70;99.90;;;;;;5074525;28;20232;-81
2022/09/01 03:58:07;;;;;;;2.80;2.60;;;13.70;99.90;;;;;;5074591;28;20654;-80
2022/09/01 04:00:36;;;;;;;3.60;2.80;;;13.60;99.90;;;;;;5074278;28;20189;-81
2022/09/01 04:03:06;;;;;;;3.63;2.57;;;13.60;99.90;;;;;;5090052;28;20594;-81
2022/09/01 04:05:36;;;;;;;2.97;2.63;;;13.60;99.90;;;;;;5094951;28;20192;-80
2022/09/01 04:08:06;;;;;;;2.90;2.60;;;13.60;99.90;;;;;;5094382;28;20234;-80
2022/09/01 04:10:37;;;;;;;3.63;2.70;;;13.60;99.90;;;;;;5088862;28;20201;-81
2022/09/01 04:13:06;;;;;;;2.77;2.57;;;13.60;99.90;;;;;;5073971;28;20643;-80
2022/09/01 04:15:33;;;;;;;3.90;2.55;;;13.60;99.90;;;;;;5074515;28;20229;-80
2022/09/01 04:18:08;;;;;;;3.13;2.45;;;13.50;99.90;;;;;;5074311;28;20551;-80
2022/09/01 04:20:47;;;;;;;2.70;2.50;;;13.60;99.90;;;;;;5084885;28;20802;-80
2022/09/01 04:23:19;;;;;;;3.13;2.83;;;13.50;99.90;;;;;;5094832;28;20189;-79
2022/09/01 04:25:49;;;;;;;2.97;2.67;;;13.50;99.90;;;;;;5094199;28;20197;-79
2022/09/01 04:28:23;;;;;;;3.30;2.87;;;13.50;99.90;;;;;;5094553;28;20203;-80
2022/09/01 04:30:56;;;;;;;3.97;3.30;;;13.50;99.90;;;;;;5093388;28;20192;-80
2022/09/01 04:33:25;;;;;;;2.47;2.27;;;13.50;99.90;;;;;;5112483;28;20230;-81
2022/09/01 04:35:55;;;;;;;2.97;2.70;;;13.40;99.90;;;;;;5099399;28;20223;-80
2022/09/01 04:38:24;;;;;;;2.57;2.37;;;13.40;99.90;;;;;;5073949;28;20228;-79
2022/09/01 04:40:53;;;;;;;2.93;2.63;;;13.40;99.90;;;;;;5073762;28;20225;-78
2022/09/01 04:43:24;;;;;;;4.13;2.73;;;13.30;99.90;;;;;;5073498;28;20621;-79
2022/09/01 04:45:52;;;;;;;4.73;3.60;;;13.30;99.90;;;;;;5073538;28;20603;-79
2022/09/01 04:48:20;;;;;;;3.07;2.77;;;13.30;99.90;;;;;;5073935;28;20292;-80
2022/09/01 04:50:50;;;;;;;3.20;2.90;;;13.30;99.90;;;;;;5073443;28;20209;-80
2022/09/01 04:53:18;;;;;;;3.10;2.80;;;13.20;99.90;;;;;;5073465;28;20260;-79
2022/09/01 04:55:46;;;;;;;3.37;3.03;;;13.20;99.90;;;;;;5073861;28;20502;-79
2022/09/01 04:58:16;;;;;;;2.97;2.67;;;13.20;99.90;;;;;;5072107;28;20205;-80
2022/09/01 05:00:48;;;;;;;2.53;2.33;;;13.20;99.90;;;;;;5072856;28;20197;-80
2022/09/01 05:03:15;;;;;;;3.07;2.77;;;13.20;99.90;;;;;;5073562;28;20189;-80
2022/09/01 05:05:45;;;;;;;3.47;2.80;;;13.20;99.90;;;;;;5087816;28;20611;-80
2022/09/01 05:08:13;;;;;;;3.93;3.07;;;13.20;99.90;;;;;;5093059;28;20204;-80
2022/09/01 05:10:43;;;;;;;6.00;3.70;;;13.20;99.90;;;;;;5093494;28;20597;-80
2022/09/01 05:13:11;;;;;;;3.50;2.80;;;13.20;99.90;;;;;;5075526;28;20212;-80
2022/09/01 05:15:38;;;;;;;6.90;3.30;;;13.20;99.90;;;;;;5072103;28;20275;-79
2022/09/01 05:18:08;;;;;;;8.50;3.63;;;13.20;99.90;;;;;;5071931;28;20197;-80
2022/09/01 05:20:41;;;;;;;6.43;3.63;;;13.20;99.90;;;;;;5072393;28;20231;-79
2022/09/01 05:23:11;;;;;;;5.10;3.40;;;13.20;99.90;;;;;;5072774;28;20528;-80
2022/09/01 05:25:43;;;;;;;6.33;3.50;;;13.20;99.90;;;;;;5076789;28;20244;-79
2022/09/01 05:28:11;;;;;;;3.93;3.53;;;13.30;99.90;;;;;;5114015;28;20263;-79
2022/09/01 05:30:40;;;;;;;5.20;3.40;;;13.30;99.90;;;;;;5085888;28;20204;-80
2022/09/01 05:33:11;;;;;;;4.73;3.83;;;13.40;99.90;;;;;;5073195;28;20269;-80
2022/09/01 05:35:42;;;;;;;4.83;3.33;;;13.40;99.90;;;;;;5086530;22;20614;-80
2022/09/01 05:38:12;;;;;;;4.53;2.70;;;13.40;99.90;;;;;;5073975;28;20231;-80
2022/09/01 05:40:40;;;;;;;3.20;2.87;;;13.40;99.90;;;;;;5072351;28;20217;-79
2022/09/01 05:43:11;;;;;;;3.87;3.53;;;13.40;99.90;;;;;;5073562;28;20283;-80
2022/09/01 05:45:41;;;;;;;4.40;3.47;;;13.50;99.90;;;;;;5073780;28;20564;-79
2022/09/01 05:48:11;;;;;;;4.90;3.87;;;13.50;99.90;;;;;;5080844;28;20261;-79
2022/09/01 05:50:41;;;;;;;6.90;4.03;;;13.60;99.90;;;;;;5094765;28;20665;-80
2022/09/01 05:53:14;;;;;;;4.27;3.53;;;13.60;99.90;;;;;;5092696;28;20295;-79
2022/09/01 05:55:45;;;;;;;4.07;3.63;;;13.70;99.90;;;;;;5073206;28;20786;-79
2022/09/01 05:58:13;;;;;;;5.47;3.50;;;13.70;99.90;;;;;;5072691;28;20279;-79
2022/09/01 06:00:41;;;;;;;5.97;3.87;;;13.80;99.90;;;;;;5075160;28;20203;-79
2022/09/01 06:03:10;;;;;;;3.93;3.63;;;13.80;99.90;;;;;;5092638;28;20283;-80
2022/09/01 06:05:38;;;;;;;4.40;3.23;;;13.90;99.90;;;;;;5092257;28;20228;-80
2022/09/01 06:08:06;;;;;;;3.53;3.33;;;14.00;99.90;;;;;;5092123;28;20197;-81
2022/09/01 06:10:38;;;;;;;3.43;3.13;;;14.00;99.90;;;;;;5098000;28;20229;-81
2022/09/01 06:13:06;;;;;;;4.17;3.20;;;14.10;99.90;;;;;;5113158;28;20196;-81
2022/09/01 06:15:37;;;;;;;4.33;3.73;;;14.20;99.90;;;;;;5101580;28;20627;-81
2022/09/01 06:18:05;;;;;;;5.90;3.57;;;14.20;99.90;;;;;;5092573;28;20199;-79
2022/09/01 06:20:35;;;;;;;6.27;3.40;;;14.30;99.90;;;;;;5082002;28;20220;-81
2022/09/01 06:23:02;;;;;;;4.47;3.40;;;14.40;99.90;;;;;;5072171;28;20622;-81
2022/09/01 06:25:29;;;;;;;3.70;3.40;;;14.50;99.90;;;;;;5072285;28;20197;-80
2022/09/01 06:27:57;;;;;;;5.70;3.88;;;14.50;99.90;;;;;;5091304;28;20215;-79
2022/09/01 06:30:25;;;;;;;3.60;3.30;;;14.60;99.90;;;;;;5092296;28;20207;-78
2022/09/01 06:32:52;;;;;;;4.55;3.17;;;14.70;99.90;;;;;;5092948;28;20225;-80
2022/09/01 06:35:20;;;;;;;3.15;2.83;;;14.80;99.90;;;;;;5093109;28;20526;-79
2022/09/01 06:37:49;;;;;;;4.87;3.73;;;14.80;99.90;;;;;;5088620;28;20197;-80
2022/09/01 06:40:16;;;;;;;3.40;3.10;;;14.90;99.90;;;;;;5091151;28;20211;-80
2022/09/01 06:42:46;;;;;;;5.40;3.33;;;15.00;99.90;;;;;;5092873;28;20471;-80
2022/09/01 06:45:13;;;;;;;2.95;2.75;;;15.10;99.90;;;;;;5093144;28;20211;-80
2022/09/01 06:47:43;;;;;;;2.90;2.70;;;15.10;99.90;;;;;;5084012;28;20197;-80
2022/09/01 06:50:12;;;;;;;4.30;2.85;;;15.20;99.90;;;;;;5072556;28;20201;-80
2022/09/01 06:52:41;;;;;;;3.83;2.83;;;15.30;99.90;;;;;;5111907;28;20196;-79
2022/09/01 06:55:11;;;;;;;4.13;3.05;;;15.40;99.90;;;;;;5112516;28;20200;-79
2022/09/01 06:57:38;;;;;;;3.17;2.55;;;15.40;99.90;;;;;;5095589;28;20231;-79
2022/09/01 07:00:16;;;;;;;3.55;2.90;;;15.50;99.90;;;;;;5091896;28;20203;-79
2022/09/01 07:02:44;;;;;;;3.08;2.78;;;15.70;99.90;;;;;;5095499;28;20537;-79
2022/09/01 07:05:11;;;;;;;3.45;2.90;;;15.80;99.90;;;;;;5111293;28;20192;-79
2022/09/01 07:07:38;;;;;;;3.83;3.00;;;15.90;99.90;;;;;;5111657;28;20576;-79
2022/09/01 07:10:05;;;;;;;4.88;2.38;;;16.00;99.90;;;;;;5112118;28;20219;-80
2022/09/01 07:12:34;;;;;;;2.83;2.30;;;16.10;99.90;;;;;;5111158;28;20486;-79
2022/09/01 07:15:01;;;;;;;4.18;2.80;;;16.10;99.90;;;;;;5111122;28;20192;-80
2022/09/01 07:17:29;;;;;;;3.58;2.70;;;16.20;99.90;;;;;;5111837;28;20415;-81
2022/09/01 07:19:57;;;;;;;3.35;2.70;;;16.30;99.90;;;;;;5097644;28;20208;-81
2022/09/01 07:22:23;;;;;;;4.45;2.72;;;16.40;99.90;;;;;;5095732;28;20203;-82
2022/09/01 07:24:56;;;;;;;3.92;2.90;;;16.50;99.90;;;;;;5095098;28;20216;-83
2022/09/01 07:27:27;;;;;;;4.28;2.72;;;16.70;99.90;;;;;;5089733;28;20189;-79
2022/09/01 07:29:56;;;;;;;2.33;2.10;;;16.90;99.90;;;;;;5084612;28;20331;-79
2022/09/01 07:32:23;;;;;;;2.92;1.85;;;17.10;99.90;;;;;;5074867;28;20225;-80
2022/09/01 07:34:51;;;;;;;3.55;1.85;;;17.30;99.90;;;;;;5080405;28;20205;-80
2022/09/01 07:37:21;;;;;;;2.55;1.75;;;17.40;99.90;;;;;;5081855;28;20241;-80
2022/09/01 07:39:48;;;;;;;2.83;1.60;;;17.50;99.90;;;;;;5081623;28;20196;-79
2022/09/01 07:42:17;;;;;;;4.30;1.80;;;17.60;99.90;;;;;;5079687;28;20223;-79
2022/09/01 07:44:44;;;;;;;2.47;1.67;;;17.60;99.90;;;;;;5071832;28;20582;-81
2022/09/01 07:47:14;;;;;;;2.33;1.60;;;17.70;99.90;;;;;;5090511;28;20203;-81
2022/09/01 07:49:41;;;;;;;3.10;1.60;;;17.80;99.90;;;;;;5083847;28;20500;-79
2022/09/01 07:52:08;;;;;;;2.05;1.40;;;17.80;99.90;;;;;;5074113;28;20282;-79
2022/09/01 07:54:36;;;;;;;2.15;1.63;;;18.00;99.90;;;;;;5074144;28;20220;-81
2022/09/01 07:57:04;;;;;;;1.80;1.52;;;18.20;42.80;;;;;;5074317;28;20221;-81
2022/09/01 07:59:32;;;;;;;1.65;1.33;;;18.30;24.20;;;;;;5074365;28;20208;-80
2022/09/01 08:01:59;;;;;;;2.55;1.90;;;18.50;12.60;;;;;;5074163;28;20482;-79
2022/09/01 08:04:28;;;;;;;1.77;1.40;;;18.80;7.40;;;;;;5074313;28;20205;-80
2022/09/01 08:06:54;;;;;;;1.73;1.48;;;19.00;1.00;;;;;;5073693;28;20197;-79
2022/09/01 08:09:21;;;;;;;4.47;1.38;;;19.30;1.00;;;;;;5073936;28;20205;-79
2022/09/01 08:11:48;;;;;;;2.05;1.40;;;19.60;1.00;;;;;;5084222;28;20227;-79
2022/09/01 08:14:15;;;;;;;1.52;1.10;;;19.80;1.00;;;;;;5093514;28;20279;-80
2022/09/01 08:16:42;;;;;;;2.28;1.15;;;20.10;1.00;;;;;;5094188;28;20226;-80
2022/09/01 08:19:09;;;;;;;1.25;1.00;;;20.30;1.00;;;;;;5080185;28;20208;-80
2022/09/01 08:21:38;;;;;;;2.17;1.30;;;20.60;1.00;;;;;;5073413;28;20228;-80
2022/09/01 08:24:05;;;;;;;2.70;1.20;;;20.90;99.90;;;;;;5095148;28;20791;-81
2022/09/01 08:26:32;;;;;;;1.80;1.35;;;21.20;1.00;;;;;;5085244;28;20277;-80
2022/09/01 08:28:59;;;;;;;1.85;1.20;;;21.40;99.90;;;;;;5073035;28;20212;-81
2022/09/01 08:31:27;;;;;;;4.45;1.10;;;21.70;1.00;;;;;;5079328;28;20232;-79
2022/09/01 08:33:54;;;;;;;3.00;1.35;;;22.00;99.90;;;;;;5084494;28;20200;-80
2022/09/01 08:36:22;;;;;;;2.63;1.30;;;22.20;1.00;;;;;;5082380;28;20431;-81
2022/09/01 08:38:51;;;;;;;3.30;1.23;;;22.50;48.50;;;;;;5084129;28;20267;-81
2022/09/01 08:41:27;;;;;;;2.13;1.25;;;22.70;1.00;;;;;;5073597;28;20193;-80
2022/09/01 08:44:05;;;;;;;2.08;1.35;;;22.80;1.00;;;;;;5076177;28;20648;-79
2022/09/01 08:46:34;;;;;;;3.05;1.02;;;23.00;1.00;;;;;;5090951;28;20218;-81
2022/09/01 08:49:08;;;;;;;3.63;1.67;;;23.20;1.00;;;;;;5079761;28;21025;-79
2022/09/01 08:51:39;;;;;;;1.40;1.30;;;23.30;1.00;;;;;;5090669;28;20193;-79
2022/09/01 08:54:16;;;;;;;2.65;1.10;;;23.40;1.00;;;;;;5093303;28;20240;-80
2022/09/01 08:56:44;;;;;;;1.92;1.08;;;23.50;1.00;;;;;;5079980;28;20245;-81
2022/09/01 08:59:12;;;;;;;4.38;1.30;;;23.70;1.00;;;;;;5072540;28;20205;-80
2022/09/01 09:01:46;;;;;;;1.65;1.30;;;23.80;1.00;;;;;;5072547;28;20210;-81
2022/09/01 09:04:26;;;;;;;1.48;0.98;;;24.00;1.00;;;;;;5071481;28;20473;-79
2022/09/01 09:07:04;;;;;;;1.27;1.15;;;24.00;1.00;;;;;;5071769;28;20202;-79
2022/09/01 09:09:40;;;;;;;1.58;0.90;;;24.30;1.00;;;;;;5088265;28;20688;-79
2022/09/01 09:12:39;;;;;;;2.10;1.10;;;24.50;1.00;;;;;;5090482;28;20268;-80
2022/09/01 09:15:19;;;;;;;4.63;1.13;;;24.80;1.00;;;;;;5092234;28;20204;-79
2022/09/01 09:17:55;;;;;;;1.92;1.10;;;24.80;1.00;;;;;;5091852;28;20315;-80
2022/09/01 09:20:21;;;;;;;4.38;1.20;;;24.90;1.00;;;;;;5091888;28;20451;-80
2022/09/01 09:22:49;;;;;;;1.10;0.90;;;24.90;1.00;;;;;;5091460;28;20251;-78
2022/09/01 09:25:19;;;;;;;2.90;1.38;;;24.90;1.00;;;;;;5082440;28;20212;-78
2022/09/01 09:27:48;;;;;;;2.63;0.90;;;24.90;99.90;;;;;;5071915;28;20261;-80
2022/09/01 09:30:20;;;;;;;1.83;1.00;;;24.80;99.90;;;;;;5071379;28;20209;-80
2022/09/01 09:32:50;;;;;;;2.50;0.88;;;24.90;99.90;;;;;;5071123;28;20229;-80
2022/09/01 09:35:23;;;;;;;1.20;1.00;;;25.10;99.90;;;;;;5088935;28;20232;-80
2022/09/01 09:37:50;;;;;;;2.75;1.00;;;25.10;99.90;;;;;;5082680;28;20616;-79
2022/09/01 09:40:21;;;;;;;1.67;0.90;;;25.10;99.90;;;;;;5071864;28;20193;-82
2022/09/01 09:43:06;;;;;;;2.60;1.30;;;25.20;99.90;;;;;;5072303;28;20187;-80
2022/09/01 09:45:37;;;;;;;3.75;1.02;;;25.30;99.90;;;;;;5072189;28;20211;-77
2022/09/01 09:48:08;;;;;;;1.73;1.10;;;25.50;99.90;;;;;;5071500;28;20201;-79
2022/09/01 09:50:38;;;;;;;2.20;1.25;;;25.50;99.90;;;;;;5071975;28;20276;-80
2022/09/01 09:53:16;;;;;;;2.55;1.10;;;25.30;99.90;;;;;;5073541;28;20205;-81
2022/09/01 09:56:03;;;;;;;3.72;1.42;;;25.40;99.90;;;;;;5115690;22;20631;-80
2022/09/01 09:58:36;;;;;;;2.95;1.15;;;25.40;99.90;;;;;;5114062;28;20223;-80
2022/09/01 10:01:07;;;;;;;2.38;0.82;;;25.30;99.90;;;;;;5112895;28;20264;-79
2022/09/01 10:03:41;;;;;;;1.75;0.80;;;25.20;99.90;;;;;;5112929;28;20196;-79
2022/09/01 10:06:16;;;;;;;3.65;0.90;;;25.20;99.90;;;;;;5101638;28;20213;-83
2022/09/01 10:08:46;;;;;;;2.55;1.15;;;25.20;99.90;;;;;;5091885;28;20207;-80
2022/09/01 10:11:28;;;;;;;2.38;0.82;;;25.30;99.90;;;;;;5091471;28;20496;-78
2022/09/01 10:13:55;;;;;;;3.58;1.08;;;25.20;99.90;;;;;;5091374;28;20275;-78
2022/09/01 10:16:29;;;;;;;7.10;1.10;;;25.30;99.90;;;;;;5092136;28;20193;-77
2022/09/01 10:18:59;;;;;;;6.55;1.10;;;25.30;99.90;;;;;;5094044;28;20207;-80
2022/09/01 10:21:31;;;;;;;2.55;0.98;;;25.30;99.90;;;;;;5111565;28;20234;-78
2022/09/01 10:23:59;;;;;;;1.33;0.77;;;25.40;99.90;;;;;;5112381;28;20192;-81
2022/09/01 10:26:35;;;;;;;2.13;1.10;;;25.50;99.90;;;;;;5112507;28;20565;-81
2022/09/01 10:29:07;;;;;;;1.60;1.02;;;25.70;99.90;;;;;;5098993;28;20204;-81
2022/09/01 10:31:36;;;;;;;2.28;1.08;;;25.80;99.90;;;;;;5091952;28;20307;-79
2022/09/01 10:34:06;;;;;;;3.28;0.77;;;26.00;99.90;;;;;;5091856;28;20282;-80
2022/09/01 10:36:34;;;;;;;2.80;1.10;;;26.10;99.90;;;;;;5091145;28;20287;-81
2022/09/01 10:39:01;;;;;;;1.45;0.85;;;26.10;99.90;;;;;;5091711;28;20208;-83
2022/09/01 10:41:52;;;;;;;2.65;0.88;;;26.10;99.90;;;;;;5090797;28;20622;-80
2022/09/01 10:44:23;;;;;;;1.45;1.00;;;26.20;99.90;;;;;;5094027;28;20193;-82
2022/09/01 10:46:50;;;;;;;3.05;1.10;;;26.20;99.90;;;;;;5111886;28;20206;-81
2022/09/01 10:49:56;;;;;;;1.92;1.05;;;26.40;99.90;;;;;;5111786;28;20282;-81
2022/09/01 10:53:03;;;;;;;1.35;0.90;;;26.30;99.90;;;;;;5099770;28;20196;-81
2022/09/01 10:56:01;;;;;;;3.13;1.00;;;26.30;99.90;;;;;;5028267;28;20715;-81
2022/09/01 10:58:57;;;;;;;3.33;0.93;;;26.30;99.90;;;;;;5107379;28;20249;-81
2022/09/01 11:01:59;;;;;;;2.03;1.00;;;26.40;99.90;;;;;;5116034;28;20502;-81
2022/09/01 11:05:13;;;;;;;3.35;1.13;;;26.30;99.90;;;;;;5109755;28;20198;-81
2022/09/01 11:07:40;;;;;;;3.05;0.98;;;26.40;99.90;;;;;;5109561;28;20235;-83
2022/09/01 11:10:34;;;;;;;3.90;1.05;;;26.20;99.90;;;;;;5114848;27;20253;-80
2022/09/01 11:13:31;;;;;;;2.40;0.80;;;26.30;99.90;;;;;;5115638;28;20192;-79
2022/09/01 11:16:31;;;;;;;2.80;1.02;;;26.20;99.90;;;;;;5115267;28;20570;-82
2022/09/01 11:19:32;;;;;;;2.13;0.90;;;26.10;99.90;;;;;;5101043;27;20234;-79
2022/09/01 11:22:28;;;;;;;2.00;0.90;;;26.10;99.90;;;;;;5094667;28;20210;-81
2022/09/01 11:25:14;;;;;;;2.75;1.10;;;26.30;99.90;;;;;;5094479;28;20188;-80
2022/09/01 11:27:58;;;;;;;2.42;1.27;;;26.50;99.90;;;;;;5095032;28;20468;-80
2022/09/01 11:30:34;;;;;;;1.80;1.00;;;26.50;99.90;;;;;;5094826;28;20203;-80
2022/09/01 11:33:12;;;;;;;1.75;0.90;;;26.20;99.90;;;;;;5095107;28;20216;-80
2022/09/01 11:35:39;;;;;;;1.63;1.00;;;26.40;99.90;;;;;;5094887;28;20188;-81
2022/09/01 11:38:08;;;;;;;3.13;1.00;;;26.40;99.90;;;;;;5094221;28;20217;-80
2022/09/01 11:40:36;;;;;;;1.92;1.08;;;26.40;99.90;;;;;;5094067;27;20210;-79
2022/09/01 11:43:07;;;;;;;1.90;1.05;;;26.40;99.90;;;;;;5103444;22;20239;-80
2022/09/01 11:45:42;;;;;;;1.27;1.10;;;26.50;99.90;;;;;;5085580;28;20212;-82
2022/09/01 11:48:13;;;;;;;2.15;1.15;;;26.50;99.90;;;;;;5073050;28;20212;-81
2022/09/01 11:50:41;;;;;;;2.33;1.00;;;26.20;99.90;;;;;;5078806;28;20283;-79
2022/09/01 11:53:12;;;;;;;3.10;1.13;;;26.00;99.90;;;;;;5092945;28;20213;-80
2022/09/01 11:55:42;;;;;;;1.63;0.90;;;26.10;99.90;;;;;;5093623;28;20204;-81
2022/09/01 11:58:11;;;;;;;1.08;0.90;;;25.90;99.90;;;;;;5092944;28;20303;-78
2022/09/01 12:00:41;;;;;;;4.05;0.88;;;26.00;99.90;;;;;;5092256;28;20219;-80
2022/09/01 12:03:21;;;;;;;1.55;0.90;;;26.20;99.90;;;;;;5093517;28;20287;-80
2022/09/01 12:05:58;;;;;;;2.30;1.02;;;26.40;99.90;;;;;;5092736;28;20192;-79
2022/09/01 12:08:26;;;;;;;4.03;1.45;;;26.40;99.90;;;;;;5094596;28;20284;-80
2022/09/01 12:11:04;;;;;;;2.33;0.80;;;26.50;99.90;;;;;;5094087;28;20204;-81
2022/09/01 12:13:31;;;;;;;3.03;0.70;;;26.70;99.90;;;;;;5093478;28;20204;-79
2022/09/01 12:16:01;;;;;;;2.25;0.75;;;26.70;99.90;;;;;;5090749;28;20201;-79
2022/09/01 12:18:31;;;;;;;2.30;0.77;;;26.70;99.90;;;;;;5091743;28;20686;-79
2022/09/01 12:21:00;;;;;;;4.95;0.70;;;26.70;99.90;;;;;;5091299;28;20652;-81
2022/09/01 12:23:29;;;;;;;2.13;0.80;;;26.50;99.90;;;;;;5082503;28;20208;-80
2022/09/01 12:25:58;;;;;;;2.88;0.90;;;26.60;99.90;;;;;;5092660;28;20300;-77
2022/09/01 12:28:29;;;;;;;2.28;0.70;;;26.60;99.90;;;;;;5091344;28;20497;-79
2022/09/01 12:30:59;;;;;;;2.50;0.93;;;26.70;99.90;;;;;;5075381;28;20266;-79
2022/09/01 12:33:27;;;;;;;0.70;0.68;;;26.70;99.90;;;;;;5074011;28;20207;-79
2022/09/01 12:36:20;;;;;;;2.38;0.98;;;26.80;99.90;;;;;;5072844;28;20197;-78
2022/09/01 12:38:46;;;;;;;0.98;0.60;;;27.00;99.90;;;;;;5075002;28;20900;-80
2022/09/01 12:41:33;;;;;;;1.60;0.80;;;27.00;99.90;;;;;;5074560;28;20209;-78
2022/09/01 12:44:27;;;;;;;2.22;0.80;;;27.10;99.90;;;;;;5073511;28;20200;-80
2022/09/01 12:46:54;;;;;;;1.35;0.70;;;27.20;99.90;;;;;;5071501;28;20210;-82
2022/09/01 12:49:25;;;;;;;5.47;1.10;;;27.20;99.90;;;;;;5071099;28;20262;-77
2022/09/01 12:52:13;;;;;;;1.15;0.80;;;27.10;99.90;;;;;;5070025;28;20225;-79
2022/09/01 12:54:40;;;;;;;1.80;0.68;;;27.20;99.90;;;;;;5073518;28;20280;-78
2022/09/01 12:57:07;;;;;;;1.02;0.70;;;27.10;99.90;;;;;;5072408;28;20209;-79
2022/09/01 12:59:34;;;;;;;3.55;0.80;;;27.20;99.90;;;;;;5073531;28;20193;-79
2022/09/01 13:02:33;;;;;;;1.45;0.80;;;27.10;99.90;;;;;;5072453;28;20193;-78
2022/09/01 13:05:18;;;;;;;1.50;0.70;;;27.00;99.90;;;;;;5081088;22;20197;-80
2022/09/01 13:07:46;;;;;;;2.70;0.60;;;26.80;99.90;;;;;;5061568;28;20197;-83
2022/09/01 13:10:13;;;;;;;2.30;0.70;;;26.80;99.90;;;;;;5052106;28;20202;-79
2022/09/01 13:12:41;;;;;;;2.60;0.60;;;26.80;99.90;;;;;;5053202;28;20197;-82